sensor_id;sensor_type;location;lat;lon;timestamp;P1;durP1;ratioP1;P2;durP2;ratioP2
23072;SDS011;67971;51.046;3.732;2023-04-24T00:00:15;40.87;;;20.60;;
23072;SDS011;67971;51.046;3.732;2023-04-24T00:02:41;32.87;;;20.37;;
23072;SDS011;67971;51.046;3.732;2023-04-24T00:05:11;30.27;;;19.33;;
23072;SDS011;67971;51.046;3.732;2023-04-24T00:07:38;28.17;;;17.80;;
23072;SDS011;67971;51.046;3.732;2023-04-24T00:10:05;25.73;;;17.70;;
23072;SDS011;67971;51.046;3.732;2023-04-24T00:12:31;27.50;;;17.40;;
23072;SDS011;67971;51.046;3.732;2023-04-24T00:14:57;27.83;;;17.70;;
23072;SDS011;67971;51.046;3.732;2023-04-24T00:17:23;26.67;;;16.87;;
23072;SDS011;67971;51.046;3.732;2023-04-24T00:19:49;27.97;;;18.23;;
23072;SDS011;67971;51.046;3.732;2023-04-24T00:22:24;28.73;;;18.73;;
23072;SDS011;67971;51.046;3.732;2023-04-24T00:24:50;31.83;;;18.77;;
23072;SDS011;67971;51.046;3.732;2023-04-24T00:27:15;28.17;;;18.13;;
23072;SDS011;67971;51.046;3.732;2023-04-24T00:29:41;33.60;;;20.17;;
23072;SDS011;67971;51.046;3.732;2023-04-24T00:32:07;28.97;;;18.87;;
23072;SDS011;67971;51.046;3.732;2023-04-24T00:34:32;29.47;;;18.87;;
23072;SDS011;67971;51.046;3.732;2023-04-24T00:36:58;27.43;;;18.30;;
23072;SDS011;67971;51.046;3.732;2023-04-24T00:39:24;26.93;;;19.07;;
23072;SDS011;67971;51.046;3.732;2023-04-24T00:41:50;26.50;;;18.23;;
23072;SDS011;67971;51.046;3.732;2023-04-24T00:44:16;24.63;;;16.63;;
23072;SDS011;67971;51.046;3.732;2023-04-24T00:46:42;19.83;;;15.50;;
23072;SDS011;67971;51.046;3.732;2023-04-24T00:49:08;22.80;;;15.20;;
23072;SDS011;67971;51.046;3.732;2023-04-24T00:51:34;17.47;;;14.70;;
23072;SDS011;67971;51.046;3.732;2023-04-24T00:54:00;18.53;;;14.37;;
23072;SDS011;67971;51.046;3.732;2023-04-24T00:56:26;23.57;;;14.37;;
23072;SDS011;67971;51.046;3.732;2023-04-24T00:58:52;17.23;;;12.93;;
23072;SDS011;67971;51.046;3.732;2023-04-24T01:01:19;15.07;;;12.30;;
23072;SDS011;67971;51.046;3.732;2023-04-24T01:03:46;14.27;;;11.83;;
23072;SDS011;67971;51.046;3.732;2023-04-24T01:06:13;13.33;;;11.27;;
23072;SDS011;67971;51.046;3.732;2023-04-24T01:08:40;13.70;;;10.53;;
23072;SDS011;67971;51.046;3.732;2023-04-24T01:11:06;16.20;;;11.53;;
23072;SDS011;67971;51.046;3.732;2023-04-24T01:13:32;15.90;;;11.47;;
23072;SDS011;67971;51.046;3.732;2023-04-24T01:15:59;17.33;;;12.10;;
23072;SDS011;67971;51.046;3.732;2023-04-24T01:18:25;18.83;;;13.30;;
23072;SDS011;67971;51.046;3.732;2023-04-24T01:20:53;16.70;;;13.47;;
23072;SDS011;67971;51.046;3.732;2023-04-24T01:23:22;20.33;;;14.53;;
23072;SDS011;67971;51.046;3.732;2023-04-24T01:25:48;21.47;;;13.80;;
23072;SDS011;67971;51.046;3.732;2023-04-24T01:28:15;23.83;;;14.83;;
23072;SDS011;67971;51.046;3.732;2023-04-24T01:30:41;21.47;;;14.00;;
23072;SDS011;67971;51.046;3.732;2023-04-24T01:33:07;18.07;;;14.80;;
23072;SDS011;67971;51.046;3.732;2023-04-24T01:35:33;20.03;;;14.43;;
23072;SDS011;67971;51.046;3.732;2023-04-24T01:38:01;19.53;;;15.60;;
23072;SDS011;67971;51.046;3.732;2023-04-24T01:40:26;23.33;;;16.13;;
23072;SDS011;67971;51.046;3.732;2023-04-24T01:42:52;25.77;;;16.97;;
23072;SDS011;67971;51.046;3.732;2023-04-24T01:45:18;20.53;;;15.80;;
23072;SDS011;67971;51.046;3.732;2023-04-24T01:47:44;23.63;;;17.33;;
23072;SDS011;67971;51.046;3.732;2023-04-24T01:50:10;23.33;;;17.43;;
23072;SDS011;67971;51.046;3.732;2023-04-24T01:52:36;26.03;;;17.53;;
23072;SDS011;67971;51.046;3.732;2023-04-24T01:55:02;23.40;;;18.97;;
23072;SDS011;67971;51.046;3.732;2023-04-24T01:57:29;20.93;;;18.07;;
23072;SDS011;67971;51.046;3.732;2023-04-24T01:59:55;26.13;;;19.97;;
23072;SDS011;67971;51.046;3.732;2023-04-24T02:02:21;27.20;;;19.73;;
23072;SDS011;67971;51.046;3.732;2023-04-24T02:04:49;27.73;;;20.27;;
23072;SDS011;67971;51.046;3.732;2023-04-24T02:07:15;27.23;;;20.23;;
23072;SDS011;67971;51.046;3.732;2023-04-24T02:09:41;25.43;;;19.70;;
23072;SDS011;67971;51.046;3.732;2023-04-24T02:12:07;29.07;;;20.53;;
23072;SDS011;67971;51.046;3.732;2023-04-24T02:14:32;28.03;;;21.60;;
23072;SDS011;67971;51.046;3.732;2023-04-24T02:16:58;25.83;;;21.30;;
23072;SDS011;67971;51.046;3.732;2023-04-24T02:19:24;28.80;;;21.57;;
23072;SDS011;67971;51.046;3.732;2023-04-24T02:21:49;28.50;;;20.57;;
23072;SDS011;67971;51.046;3.732;2023-04-24T02:24:15;26.40;;;21.87;;
23072;SDS011;67971;51.046;3.732;2023-04-24T02:26:41;25.50;;;20.13;;
23072;SDS011;67971;51.046;3.732;2023-04-24T02:29:07;26.73;;;21.73;;
23072;SDS011;67971;51.046;3.732;2023-04-24T02:31:32;26.73;;;20.83;;
23072;SDS011;67971;51.046;3.732;2023-04-24T02:33:58;25.17;;;20.37;;
23072;SDS011;67971;51.046;3.732;2023-04-24T02:36:24;28.63;;;21.07;;
23072;SDS011;67971;51.046;3.732;2023-04-24T02:38:50;25.93;;;18.57;;
23072;SDS011;67971;51.046;3.732;2023-04-24T02:41:15;27.50;;;17.90;;
23072;SDS011;67971;51.046;3.732;2023-04-24T02:43:41;24.03;;;18.43;;
23072;SDS011;67971;51.046;3.732;2023-04-24T02:46:07;23.37;;;17.20;;
23072;SDS011;67971;51.046;3.732;2023-04-24T02:48:32;24.93;;;16.03;;
23072;SDS011;67971;51.046;3.732;2023-04-24T02:50:58;23.13;;;14.60;;
23072;SDS011;67971;51.046;3.732;2023-04-24T02:53:24;20.40;;;13.30;;
23072;SDS011;67971;51.046;3.732;2023-04-24T02:55:50;24.77;;;13.47;;
23072;SDS011;67971;51.046;3.732;2023-04-24T02:58:15;18.70;;;13.10;;
23072;SDS011;67971;51.046;3.732;2023-04-24T03:00:42;17.73;;;8.87;;
23072;SDS011;67971;51.046;3.732;2023-04-24T03:03:08;15.30;;;8.40;;
23072;SDS011;67971;51.046;3.732;2023-04-24T03:05:34;15.83;;;8.03;;
23072;SDS011;67971;51.046;3.732;2023-04-24T03:08:00;15.63;;;7.67;;
23072;SDS011;67971;51.046;3.732;2023-04-24T03:10:26;14.47;;;7.27;;
23072;SDS011;67971;51.046;3.732;2023-04-24T03:12:51;12.10;;;6.20;;
23072;SDS011;67971;51.046;3.732;2023-04-24T03:15:17;14.83;;;6.73;;
23072;SDS011;67971;51.046;3.732;2023-04-24T03:17:43;11.37;;;6.23;;
23072;SDS011;67971;51.046;3.732;2023-04-24T03:20:08;13.83;;;7.07;;
23072;SDS011;67971;51.046;3.732;2023-04-24T03:22:34;10.10;;;6.30;;
23072;SDS011;67971;51.046;3.732;2023-04-24T03:25:00;14.07;;;7.73;;
23072;SDS011;67971;51.046;3.732;2023-04-24T03:27:26;21.93;;;9.77;;
23072;SDS011;67971;51.046;3.732;2023-04-24T03:29:52;16.17;;;9.43;;
23072;SDS011;67971;51.046;3.732;2023-04-24T03:32:20;20.47;;;11.00;;
23072;SDS011;67971;51.046;3.732;2023-04-24T03:34:47;20.30;;;11.30;;
23072;SDS011;67971;51.046;3.732;2023-04-24T03:37:13;21.13;;;12.13;;
23072;SDS011;67971;51.046;3.732;2023-04-24T03:39:39;19.10;;;11.83;;
23072;SDS011;67971;51.046;3.732;2023-04-24T03:42:05;23.17;;;12.13;;
23072;SDS011;67971;51.046;3.732;2023-04-24T03:44:31;24.90;;;13.40;;
23072;SDS011;67971;51.046;3.732;2023-04-24T03:46:57;29.73;;;13.47;;
23072;SDS011;67971;51.046;3.732;2023-04-24T03:49:23;22.47;;;13.30;;
23072;SDS011;67971;51.046;3.732;2023-04-24T03:51:49;32.03;;;15.60;;
23072;SDS011;67971;51.046;3.732;2023-04-24T03:54:14;21.87;;;14.20;;
23072;SDS011;67971;51.046;3.732;2023-04-24T03:56:40;30.13;;;14.13;;
23072;SDS011;67971;51.046;3.732;2023-04-24T03:59:06;26.83;;;15.20;;
23072;SDS011;67971;51.046;3.732;2023-04-24T04:01:31;27.90;;;15.23;;
23072;SDS011;67971;51.046;3.732;2023-04-24T04:03:57;28.97;;;14.80;;
23072;SDS011;67971;51.046;3.732;2023-04-24T04:06:22;23.80;;;14.53;;
23072;SDS011;67971;51.046;3.732;2023-04-24T04:08:48;28.87;;;14.97;;
23072;SDS011;67971;51.046;3.732;2023-04-24T04:11:14;32.33;;;14.27;;
23072;SDS011;67971;51.046;3.732;2023-04-24T04:13:40;27.53;;;13.80;;
23072;SDS011;67971;51.046;3.732;2023-04-24T04:16:05;32.17;;;14.97;;
23072;SDS011;67971;51.046;3.732;2023-04-24T04:18:31;30.07;;;14.90;;
23072;SDS011;67971;51.046;3.732;2023-04-24T04:20:57;27.93;;;13.67;;
23072;SDS011;67971;51.046;3.732;2023-04-24T04:23:22;26.63;;;13.97;;
23072;SDS011;67971;51.046;3.732;2023-04-24T04:25:48;28.70;;;13.80;;
23072;SDS011;67971;51.046;3.732;2023-04-24T04:28:15;28.60;;;14.03;;
23072;SDS011;67971;51.046;3.732;2023-04-24T04:30:40;24.90;;;13.67;;
23072;SDS011;67971;51.046;3.732;2023-04-24T04:33:06;30.50;;;14.37;;
23072;SDS011;67971;51.046;3.732;2023-04-24T04:35:33;25.07;;;13.50;;
23072;SDS011;67971;51.046;3.732;2023-04-24T04:37:59;31.23;;;14.37;;
23072;SDS011;67971;51.046;3.732;2023-04-24T04:40:24;23.07;;;15.10;;
23072;SDS011;67971;51.046;3.732;2023-04-24T04:42:51;18.17;;;13.40;;
23072;SDS011;67971;51.046;3.732;2023-04-24T04:45:18;22.07;;;14.37;;
23072;SDS011;67971;51.046;3.732;2023-04-24T04:47:44;22.47;;;13.20;;
23072;SDS011;67971;51.046;3.732;2023-04-24T04:50:10;28.60;;;14.80;;
23072;SDS011;67971;51.046;3.732;2023-04-24T04:52:36;21.27;;;13.03;;
23072;SDS011;67971;51.046;3.732;2023-04-24T04:55:02;23.37;;;14.40;;
23072;SDS011;67971;51.046;3.732;2023-04-24T04:57:27;27.20;;;13.97;;
23072;SDS011;67971;51.046;3.732;2023-04-24T04:59:53;30.30;;;13.80;;
23072;SDS011;67971;51.046;3.732;2023-04-24T05:02:19;22.13;;;14.30;;
23072;SDS011;67971;51.046;3.732;2023-04-24T05:04:45;26.03;;;14.67;;
23072;SDS011;67971;51.046;3.732;2023-04-24T05:07:11;24.03;;;13.90;;
23072;SDS011;67971;51.046;3.732;2023-04-24T05:09:37;25.10;;;14.57;;
23072;SDS011;67971;51.046;3.732;2023-04-24T05:12:02;27.23;;;14.53;;
23072;SDS011;67971;51.046;3.732;2023-04-24T05:14:28;27.83;;;15.47;;
23072;SDS011;67971;51.046;3.732;2023-04-24T05:16:54;25.20;;;15.83;;
23072;SDS011;67971;51.046;3.732;2023-04-24T05:19:20;29.57;;;17.07;;
23072;SDS011;67971;51.046;3.732;2023-04-24T05:21:45;35.30;;;16.07;;
23072;SDS011;67971;51.046;3.732;2023-04-24T05:24:11;28.63;;;16.17;;
23072;SDS011;67971;51.046;3.732;2023-04-24T05:26:37;31.63;;;15.70;;
23072;SDS011;67971;51.046;3.732;2023-04-24T05:29:03;30.83;;;16.20;;
23072;SDS011;67971;51.046;3.732;2023-04-24T05:31:29;29.97;;;16.67;;
23072;SDS011;67971;51.046;3.732;2023-04-24T05:33:54;28.67;;;17.17;;
23072;SDS011;67971;51.046;3.732;2023-04-24T05:36:20;34.90;;;16.97;;
23072;SDS011;67971;51.046;3.732;2023-04-24T05:38:46;30.70;;;17.83;;
23072;SDS011;67971;51.046;3.732;2023-04-24T05:41:11;30.97;;;16.07;;
23072;SDS011;67971;51.046;3.732;2023-04-24T05:43:37;28.13;;;17.43;;
23072;SDS011;67971;51.046;3.732;2023-04-24T05:48:32;36.53;;;19.43;;
23072;SDS011;67971;51.046;3.732;2023-04-24T05:50:58;64.80;;;21.70;;
23072;SDS011;67971;51.046;3.732;2023-04-24T05:53:24;48.23;;;18.77;;
23072;SDS011;67971;51.046;3.732;2023-04-24T05:55:49;56.13;;;21.00;;
23072;SDS011;67971;51.046;3.732;2023-04-24T05:58:15;41.57;;;19.13;;
23072;SDS011;67971;51.046;3.732;2023-04-24T06:00:40;34.63;;;19.87;;
23072;SDS011;67971;51.046;3.732;2023-04-24T06:03:08;37.73;;;19.27;;
23072;SDS011;67971;51.046;3.732;2023-04-24T06:05:33;45.57;;;21.67;;
23072;SDS011;67971;51.046;3.732;2023-04-24T06:08:00;33.27;;;19.57;;
23072;SDS011;67971;51.046;3.732;2023-04-24T06:10:25;39.50;;;19.80;;
23072;SDS011;67971;51.046;3.732;2023-04-24T06:12:51;40.43;;;19.57;;
23072;SDS011;67971;51.046;3.732;2023-04-24T06:15:17;43.33;;;24.73;;
23072;SDS011;67971;51.046;3.732;2023-04-24T06:17:42;42.87;;;20.57;;
23072;SDS011;67971;51.046;3.732;2023-04-24T06:20:08;42.37;;;20.23;;
23072;SDS011;67971;51.046;3.732;2023-04-24T06:22:35;35.27;;;19.33;;
23072;SDS011;67971;51.046;3.732;2023-04-24T06:25:01;38.43;;;17.63;;
23072;SDS011;67971;51.046;3.732;2023-04-24T06:27:27;36.47;;;17.27;;
23072;SDS011;67971;51.046;3.732;2023-04-24T06:29:53;33.90;;;17.70;;
23072;SDS011;67971;51.046;3.732;2023-04-24T06:32:23;42.03;;;18.13;;
23072;SDS011;67971;51.046;3.732;2023-04-24T06:34:50;38.83;;;17.37;;
23072;SDS011;67971;51.046;3.732;2023-04-24T06:37:20;32.03;;;16.50;;
23072;SDS011;67971;51.046;3.732;2023-04-24T06:39:47;29.90;;;15.00;;
23072;SDS011;67971;51.046;3.732;2023-04-24T06:42:12;37.13;;;14.47;;
23072;SDS011;67971;51.046;3.732;2023-04-24T06:44:38;26.83;;;13.10;;
23072;SDS011;67971;51.046;3.732;2023-04-24T06:47:07;25.40;;;12.43;;
23072;SDS011;67971;51.046;3.732;2023-04-24T06:49:34;23.80;;;11.30;;
23072;SDS011;67971;51.046;3.732;2023-04-24T06:52:03;25.47;;;10.43;;
23072;SDS011;67971;51.046;3.732;2023-04-24T06:54:30;27.37;;;12.13;;
23072;SDS011;67971;51.046;3.732;2023-04-24T06:56:56;24.53;;;10.87;;
23072;SDS011;67971;51.046;3.732;2023-04-24T06:59:23;27.27;;;10.07;;
23072;SDS011;67971;51.046;3.732;2023-04-24T07:01:49;25.67;;;10.77;;
23072;SDS011;67971;51.046;3.732;2023-04-24T07:04:16;29.43;;;10.87;;
23072;SDS011;67971;51.046;3.732;2023-04-24T07:06:42;30.90;;;10.43;;
23072;SDS011;67971;51.046;3.732;2023-04-24T07:09:08;26.07;;;11.70;;
23072;SDS011;67971;51.046;3.732;2023-04-24T07:11:34;22.70;;;10.63;;
23072;SDS011;67971;51.046;3.732;2023-04-24T07:14:00;21.03;;;9.27;;
23072;SDS011;67971;51.046;3.732;2023-04-24T07:16:26;26.00;;;8.93;;
23072;SDS011;67971;51.046;3.732;2023-04-24T07:18:52;22.07;;;9.83;;
23072;SDS011;67971;51.046;3.732;2023-04-24T07:21:17;23.03;;;7.87;;
23072;SDS011;67971;51.046;3.732;2023-04-24T07:23:43;16.73;;;6.67;;
23072;SDS011;67971;51.046;3.732;2023-04-24T07:26:09;15.93;;;7.10;;
23072;SDS011;67971;51.046;3.732;2023-04-24T07:28:34;27.07;;;6.83;;
23072;SDS011;67971;51.046;3.732;2023-04-24T07:31:00;25.03;;;6.70;;
23072;SDS011;67971;51.046;3.732;2023-04-24T07:33:26;18.23;;;6.93;;
23072;SDS011;67971;51.046;3.732;2023-04-24T07:35:52;24.63;;;6.27;;
23072;SDS011;67971;51.046;3.732;2023-04-24T07:38:18;17.43;;;5.63;;
23072;SDS011;67971;51.046;3.732;2023-04-24T07:40:47;22.17;;;6.87;;
23072;SDS011;67971;51.046;3.732;2023-04-24T07:43:13;27.23;;;6.10;;
23072;SDS011;67971;51.046;3.732;2023-04-24T07:45:39;23.23;;;6.03;;
23072;SDS011;67971;51.046;3.732;2023-04-24T07:48:05;23.57;;;6.80;;
23072;SDS011;67971;51.046;3.732;2023-04-24T07:50:31;17.00;;;7.00;;
23072;SDS011;67971;51.046;3.732;2023-04-24T07:52:57;22.13;;;5.80;;
23072;SDS011;67971;51.046;3.732;2023-04-24T07:55:23;23.47;;;6.80;;
23072;SDS011;67971;51.046;3.732;2023-04-24T07:57:49;25.70;;;7.30;;
23072;SDS011;67971;51.046;3.732;2023-04-24T08:00:15;14.37;;;6.83;;
23072;SDS011;67971;51.046;3.732;2023-04-24T08:02:41;24.40;;;7.30;;
23072;SDS011;67971;51.046;3.732;2023-04-24T08:05:06;18.50;;;7.57;;
23072;SDS011;67971;51.046;3.732;2023-04-24T08:07:32;30.27;;;6.93;;
23072;SDS011;67971;51.046;3.732;2023-04-24T08:09:58;19.43;;;6.30;;
23072;SDS011;67971;51.046;3.732;2023-04-24T08:12:28;18.70;;;5.83;;
23072;SDS011;67971;51.046;3.732;2023-04-24T08:14:54;20.83;;;5.87;;
23072;SDS011;67971;51.046;3.732;2023-04-24T08:17:20;16.27;;;5.20;;
23072;SDS011;67971;51.046;3.732;2023-04-24T08:19:46;20.60;;;4.93;;
23072;SDS011;67971;51.046;3.732;2023-04-24T08:22:16;16.50;;;5.00;;
23072;SDS011;67971;51.046;3.732;2023-04-24T08:24:41;13.97;;;4.77;;
23072;SDS011;67971;51.046;3.732;2023-04-24T08:27:08;16.53;;;5.37;;
23072;SDS011;67971;51.046;3.732;2023-04-24T08:29:34;20.37;;;5.53;;
23072;SDS011;67971;51.046;3.732;2023-04-24T08:32:00;12.40;;;4.87;;
23072;SDS011;67971;51.046;3.732;2023-04-24T08:34:25;14.27;;;4.47;;
23072;SDS011;67971;51.046;3.732;2023-04-24T08:36:51;12.93;;;4.20;;
23072;SDS011;67971;51.046;3.732;2023-04-24T08:39:17;12.37;;;4.77;;
23072;SDS011;67971;51.046;3.732;2023-04-24T08:41:44;13.63;;;4.70;;
23072;SDS011;67971;51.046;3.732;2023-04-24T08:44:10;16.63;;;5.13;;
23072;SDS011;67971;51.046;3.732;2023-04-24T08:46:37;13.37;;;5.10;;
23072;SDS011;67971;51.046;3.732;2023-04-24T08:49:05;9.57;;;4.63;;
23072;SDS011;67971;51.046;3.732;2023-04-24T08:51:31;16.40;;;5.10;;
23072;SDS011;67971;51.046;3.732;2023-04-24T08:53:57;10.00;;;3.97;;
23072;SDS011;67971;51.046;3.732;2023-04-24T08:56:23;16.67;;;4.87;;
23072;SDS011;67971;51.046;3.732;2023-04-24T08:58:51;16.30;;;4.40;;
23072;SDS011;67971;51.046;3.732;2023-04-24T09:01:19;13.43;;;4.87;;
23072;SDS011;67971;51.046;3.732;2023-04-24T09:03:46;15.40;;;4.43;;
23072;SDS011;67971;51.046;3.732;2023-04-24T09:06:14;14.53;;;5.53;;
23072;SDS011;67971;51.046;3.732;2023-04-24T09:08:42;15.73;;;5.00;;
23072;SDS011;67971;51.046;3.732;2023-04-24T09:11:10;15.93;;;6.47;;
23072;SDS011;67971;51.046;3.732;2023-04-24T09:13:37;18.23;;;5.60;;
23072;SDS011;67971;51.046;3.732;2023-04-24T09:16:03;12.63;;;4.80;;
23072;SDS011;67971;51.046;3.732;2023-04-24T09:18:29;17.80;;;4.80;;
23072;SDS011;67971;51.046;3.732;2023-04-24T09:21:03;13.77;;;5.00;;
23072;SDS011;67971;51.046;3.732;2023-04-24T09:23:31;11.63;;;4.83;;
23072;SDS011;67971;51.046;3.732;2023-04-24T09:25:58;17.30;;;5.40;;
23072;SDS011;67971;51.046;3.732;2023-04-24T09:28:46;18.73;;;5.03;;
23072;SDS011;67971;51.046;3.732;2023-04-24T09:31:15;19.47;;;5.23;;
23072;SDS011;67971;51.046;3.732;2023-04-24T09:33:59;9.67;;;4.93;;
23072;SDS011;67971;51.046;3.732;2023-04-24T09:36:29;20.00;;;6.67;;
23072;SDS011;67971;51.046;3.732;2023-04-24T09:39:00;13.90;;;4.57;;
23072;SDS011;67971;51.046;3.732;2023-04-24T09:41:27;16.13;;;4.30;;
23072;SDS011;67971;51.046;3.732;2023-04-24T09:43:54;15.47;;;4.60;;
23072;SDS011;67971;51.046;3.732;2023-04-24T09:46:28;13.20;;;4.37;;
23072;SDS011;67971;51.046;3.732;2023-04-24T09:48:55;15.17;;;4.57;;
23072;SDS011;67971;51.046;3.732;2023-04-24T09:51:32;9.53;;;4.87;;
23072;SDS011;67971;51.046;3.732;2023-04-24T09:54:00;11.33;;;4.83;;
23072;SDS011;67971;51.046;3.732;2023-04-24T09:56:26;15.93;;;4.43;;
23072;SDS011;67971;51.046;3.732;2023-04-24T09:58:52;15.63;;;4.53;;
23072;SDS011;67971;51.046;3.732;2023-04-24T10:01:29;8.03;;;4.07;;
23072;SDS011;67971;51.046;3.732;2023-04-24T10:03:55;10.77;;;4.87;;
23072;SDS011;67971;51.046;3.732;2023-04-24T10:06:21;12.30;;;5.00;;
23072;SDS011;67971;51.046;3.732;2023-04-24T10:08:47;12.83;;;4.37;;
23072;SDS011;67971;51.046;3.732;2023-04-24T10:11:15;11.30;;;4.13;;
23072;SDS011;67971;51.046;3.732;2023-04-24T10:13:42;12.27;;;4.23;;
23072;SDS011;67971;51.046;3.732;2023-04-24T10:16:09;18.17;;;4.88;;
23072;SDS011;67971;51.046;3.732;2023-04-24T10:18:35;11.77;;;4.38;;
23072;SDS011;67971;51.046;3.732;2023-04-24T10:21:01;11.83;;;4.07;;
23072;SDS011;67971;51.046;3.732;2023-04-24T10:23:27;11.17;;;4.93;;
23072;SDS011;67971;51.046;3.732;2023-04-24T10:25:55;10.80;;;4.67;;
23072;SDS011;67971;51.046;3.732;2023-04-24T10:28:21;12.47;;;4.57;;
23072;SDS011;67971;51.046;3.732;2023-04-24T10:30:49;14.07;;;5.00;;
23072;SDS011;67971;51.046;3.732;2023-04-24T10:33:16;9.60;;;4.40;;
23072;SDS011;67971;51.046;3.732;2023-04-24T10:35:45;12.90;;;4.80;;
23072;SDS011;67971;51.046;3.732;2023-04-24T10:38:14;13.40;;;4.23;;
23072;SDS011;67971;51.046;3.732;2023-04-24T10:40:43;11.03;;;4.10;;
23072;SDS011;67971;51.046;3.732;2023-04-24T10:43:10;10.70;;;4.53;;
23072;SDS011;67971;51.046;3.732;2023-04-24T10:45:41;10.25;;;4.22;;
23072;SDS011;67971;51.046;3.732;2023-04-24T10:48:29;11.35;;;4.10;;
23072;SDS011;67971;51.046;3.732;2023-04-24T10:50:55;11.73;;;4.13;;
23072;SDS011;67971;51.046;3.732;2023-04-24T10:53:27;11.40;;;4.73;;
23072;SDS011;67971;51.046;3.732;2023-04-24T10:55:57;8.43;;;3.70;;
23072;SDS011;67971;51.046;3.732;2023-04-24T10:58:44;17.23;;;4.10;;
23072;SDS011;67971;51.046;3.732;2023-04-24T11:04:22;10.30;;;3.58;;
23072;SDS011;67971;51.046;3.732;2023-04-24T11:06:58;13.05;;;3.90;;
23072;SDS011;67971;51.046;3.732;2023-04-24T11:09:26;10.48;;;3.25;;
23072;SDS011;67971;51.046;3.732;2023-04-24T11:12:02;13.20;;;3.75;;
23072;SDS011;67971;51.046;3.732;2023-04-24T11:17:30;10.32;;;3.80;;
23072;SDS011;67971;51.046;3.732;2023-04-24T11:20:02;8.13;;;3.15;;
23072;SDS011;67971;51.046;3.732;2023-04-24T11:22:36;8.45;;;3.05;;
23072;SDS011;67971;51.046;3.732;2023-04-24T11:25:05;10.18;;;3.22;;
23072;SDS011;67971;51.046;3.732;2023-04-24T11:27:39;12.25;;;3.88;;
23072;SDS011;67971;51.046;3.732;2023-04-24T11:30:09;10.30;;;3.80;;
23072;SDS011;67971;51.046;3.732;2023-04-24T11:32:37;10.77;;;3.33;;
23072;SDS011;67971;51.046;3.732;2023-04-24T11:35:23;10.95;;;3.47;;
23072;SDS011;67971;51.046;3.732;2023-04-24T11:37:50;10.07;;;4.15;;
23072;SDS011;67971;51.046;3.732;2023-04-24T11:40:18;10.23;;;3.53;;
23072;SDS011;67971;51.046;3.732;2023-04-24T11:42:49;10.57;;;3.13;;
23072;SDS011;67971;51.046;3.732;2023-04-24T11:45:24;10.70;;;3.17;;
23072;SDS011;67971;51.046;3.732;2023-04-24T11:47:51;8.88;;;3.00;;
23072;SDS011;67971;51.046;3.732;2023-04-24T11:50:18;8.27;;;3.20;;
23072;SDS011;67971;51.046;3.732;2023-04-24T11:52:45;7.72;;;2.90;;
23072;SDS011;67971;51.046;3.732;2023-04-24T11:57:44;12.25;;;3.40;;
23072;SDS011;67971;51.046;3.732;2023-04-24T12:00:18;12.15;;;3.30;;
23072;SDS011;67971;51.046;3.732;2023-04-24T12:02:46;10.95;;;3.20;;
23072;SDS011;67971;51.046;3.732;2023-04-24T12:05:28;10.07;;;3.20;;
23072;SDS011;67971;51.046;3.732;2023-04-24T12:07:56;6.82;;;3.03;;
23072;SDS011;67971;51.046;3.732;2023-04-24T12:10:23;7.15;;;2.95;;
23072;SDS011;67971;51.046;3.732;2023-04-24T12:12:50;7.75;;;2.70;;
23072;SDS011;67971;51.046;3.732;2023-04-24T12:15:17;11.45;;;2.63;;
23072;SDS011;67971;51.046;3.732;2023-04-24T12:17:44;9.48;;;2.15;;
23072;SDS011;67971;51.046;3.732;2023-04-24T12:20:10;9.77;;;2.30;;
23072;SDS011;67971;51.046;3.732;2023-04-24T12:22:44;13.50;;;2.13;;
23072;SDS011;67971;51.046;3.732;2023-04-24T12:25:11;4.20;;;1.90;;
23072;SDS011;67971;51.046;3.732;2023-04-24T12:27:37;9.85;;;2.38;;
23072;SDS011;67971;51.046;3.732;2023-04-24T12:30:04;9.88;;;1.95;;
23072;SDS011;67971;51.046;3.732;2023-04-24T12:32:30;8.30;;;2.63;;
23072;SDS011;67971;51.046;3.732;2023-04-24T12:34:57;14.05;;;2.65;;
23072;SDS011;67971;51.046;3.732;2023-04-24T12:37:26;8.55;;;2.20;;
23072;SDS011;67971;51.046;3.732;2023-04-24T12:40:04;5.88;;;2.05;;
23072;SDS011;67971;51.046;3.732;2023-04-24T12:42:32;6.07;;;2.28;;
23072;SDS011;67971;51.046;3.732;2023-04-24T12:44:59;8.15;;;2.92;;
23072;SDS011;67971;51.046;3.732;2023-04-24T12:47:32;10.85;;;2.00;;
23072;SDS011;67971;51.046;3.732;2023-04-24T12:49:58;6.93;;;2.13;;
23072;SDS011;67971;51.046;3.732;2023-04-24T12:52:25;5.45;;;1.58;;
23072;SDS011;67971;51.046;3.732;2023-04-24T12:54:58;5.47;;;1.85;;
23072;SDS011;67971;51.046;3.732;2023-04-24T12:57:26;5.50;;;2.15;;
23072;SDS011;67971;51.046;3.732;2023-04-24T12:59:57;7.15;;;2.13;;
23072;SDS011;67971;51.046;3.732;2023-04-24T13:02:24;4.57;;;1.63;;
23072;SDS011;67971;51.046;3.732;2023-04-24T13:04:52;9.95;;;1.80;;
23072;SDS011;67971;51.046;3.732;2023-04-24T13:07:18;3.72;;;1.52;;
23072;SDS011;67971;51.046;3.732;2023-04-24T13:09:45;4.72;;;1.48;;
23072;SDS011;67971;51.046;3.732;2023-04-24T13:12:12;3.60;;;1.30;;
23072;SDS011;67971;51.046;3.732;2023-04-24T13:14:38;4.35;;;1.50;;
23072;SDS011;67971;51.046;3.732;2023-04-24T13:17:04;3.38;;;1.55;;
23072;SDS011;67971;51.046;3.732;2023-04-24T13:19:34;6.10;;;1.65;;
23072;SDS011;67971;51.046;3.732;2023-04-24T13:22:02;4.25;;;1.25;;
23072;SDS011;67971;51.046;3.732;2023-04-24T13:24:29;5.22;;;1.60;;
23072;SDS011;67971;51.046;3.732;2023-04-24T13:26:56;2.53;;;1.75;;
23072;SDS011;67971;51.046;3.732;2023-04-24T13:29:22;6.88;;;1.75;;
23072;SDS011;67971;51.046;3.732;2023-04-24T13:31:50;6.88;;;2.00;;
23072;SDS011;67971;51.046;3.732;2023-04-24T13:34:17;5.97;;;1.58;;
23072;SDS011;67971;51.046;3.732;2023-04-24T13:36:43;5.60;;;1.77;;
23072;SDS011;67971;51.046;3.732;2023-04-24T13:39:08;5.28;;;1.38;;
23072;SDS011;67971;51.046;3.732;2023-04-24T13:41:35;6.90;;;1.83;;
23072;SDS011;67971;51.046;3.732;2023-04-24T13:44:01;6.47;;;1.38;;
23072;SDS011;67971;51.046;3.732;2023-04-24T13:46:27;8.43;;;1.90;;
23072;SDS011;67971;51.046;3.732;2023-04-24T13:48:53;6.97;;;1.60;;
23072;SDS011;67971;51.046;3.732;2023-04-24T13:51:19;5.00;;;1.45;;
23072;SDS011;67971;51.046;3.732;2023-04-24T13:53:45;3.80;;;1.65;;
23072;SDS011;67971;51.046;3.732;2023-04-24T13:56:13;4.78;;;1.30;;
23072;SDS011;67971;51.046;3.732;2023-04-24T13:58:39;10.57;;;1.85;;
23072;SDS011;67971;51.046;3.732;2023-04-24T14:01:05;7.40;;;1.55;;
23072;SDS011;67971;51.046;3.732;2023-04-24T14:03:32;8.75;;;1.58;;
23072;SDS011;67971;51.046;3.732;2023-04-24T14:05:58;3.58;;;1.52;;
23072;SDS011;67971;51.046;3.732;2023-04-24T14:08:24;10.82;;;1.67;;
23072;SDS011;67971;51.046;3.732;2023-04-24T14:10:50;5.03;;;1.50;;
23072;SDS011;67971;51.046;3.732;2023-04-24T14:13:16;3.95;;;1.83;;
23072;SDS011;67971;51.046;3.732;2023-04-24T14:15:42;4.13;;;1.30;;
23072;SDS011;67971;51.046;3.732;2023-04-24T14:18:08;5.00;;;1.40;;
23072;SDS011;67971;51.046;3.732;2023-04-24T14:20:34;2.97;;;1.20;;
23072;SDS011;67971;51.046;3.732;2023-04-24T14:22:59;2.75;;;1.40;;
23072;SDS011;67971;51.046;3.732;2023-04-24T14:25:26;5.30;;;1.80;;
23072;SDS011;67971;51.046;3.732;2023-04-24T14:27:52;1.52;;;1.20;;
23072;SDS011;67971;51.046;3.732;2023-04-24T14:30:18;5.55;;;1.60;;
23072;SDS011;67971;51.046;3.732;2023-04-24T14:32:44;4.88;;;1.48;;
23072;SDS011;67971;51.046;3.732;2023-04-24T14:35:09;6.93;;;1.98;;
23072;SDS011;67971;51.046;3.732;2023-04-24T14:37:35;3.92;;;1.33;;
23072;SDS011;67971;51.046;3.732;2023-04-24T14:40:04;4.25;;;1.60;;